Time;durP1;ratioP1;P1;durP2;ratioP2;P2;SDS_P1;SDS_P2;PMS_P1;PMS_P2;Temp;Humidity;BMP_temperature;BMP_pressure;BME280_temperature;BME280_humidity;BME280_pressure;Samples;Min_cycle;Max_cycle;Signal;HPM_P1;HPM_P2
2023/06/16 00:01:39;;;;;;;2.85;2.05;;;25.10;40.20;;;;;;5034578;28;20022;-68
2023/06/16 00:04:05;;;;;;;2.40;1.90;;;25.10;40.20;;;;;;5038197;28;20024;-68
2023/06/16 00:06:31;;;;;;;2.70;1.70;;;25.10;40.20;;;;;;5038958;28;20024;-68
2023/06/16 00:08:58;;;;;;;2.78;1.85;;;25.10;40.20;;;;;;5032139;28;20037;-68
2023/06/16 00:11:28;;;;;;;2.45;1.80;;;25.00;40.10;;;;;;5033065;28;20481;-68
2023/06/16 00:13:55;;;;;;;2.83;1.90;;;25.10;40.20;;;;;;5034958;28;20473;-68
2023/06/16 00:16:22;;;;;;;2.22;1.73;;;25.10;40.20;;;;;;5032206;28;20033;-68
2023/06/16 00:18:49;;;;;;;2.90;1.90;;;25.10;40.20;;;;;;5035777;28;20437;-68
2023/06/16 00:21:19;;;;;;;2.17;1.65;;;25.10;40.20;;;;;;5036413;28;20020;-68
2023/06/16 00:23:46;;;;;;;2.63;1.90;;;25.00;40.20;;;;;;5028790;28;20465;-68
2023/06/16 00:26:12;;;;;;;2.50;1.70;;;25.00;40.20;;;;;;5033165;28;20033;-68
2023/06/16 00:28:38;;;;;;;2.40;1.67;;;25.00;40.30;;;;;;5037748;28;20021;-68
2023/06/16 00:31:04;;;;;;;2.20;1.85;;;25.00;40.30;;;;;;5033633;28;20023;-68
2023/06/16 00:33:30;;;;;;;2.10;1.50;;;25.00;40.30;;;;;;5033279;28;20443;-68
2023/06/16 00:35:56;;;;;;;3.13;1.95;;;25.00;40.30;;;;;;5032778;28;20029;-68
2023/06/16 00:38:22;;;;;;;2.58;1.90;;;25.00;40.30;;;;;;5035287;28;20081;-68
2023/06/16 00:40:47;;;;;;;2.33;1.75;;;25.00;40.40;;;;;;5030706;28;20037;-68
2023/06/16 00:43:13;;;;;;;2.60;1.80;;;25.00;40.30;;;;;;5037743;28;20577;-68
2023/06/16 00:45:38;;;;;;;2.60;1.90;;;25.00;40.30;;;;;;5034532;28;20044;-68
2023/06/16 00:48:05;;;;;;;2.20;1.73;;;25.00;40.40;;;;;;5035818;28;20409;-68
2023/06/16 00:50:32;;;;;;;1.80;1.50;;;25.00;40.40;;;;;;5036049;28;20029;-68
2023/06/16 00:52:58;;;;;;;2.60;1.80;;;25.00;40.40;;;;;;5019907;28;20075;-68
2023/06/16 00:55:24;;;;;;;2.53;1.70;;;25.00;40.40;;;;;;5032573;28;20049;-68
2023/06/16 00:57:50;;;;;;;2.40;1.70;;;25.00;40.40;;;;;;5036339;28;20033;-68
2023/06/16 01:00:17;;;;;;;3.08;1.77;;;25.00;40.40;;;;;;5019579;28;20030;-68
2023/06/16 01:02:45;;;;;;;2.08;1.55;;;25.00;40.40;;;;;;5020647;28;20030;-68
2023/06/16 01:05:16;;;;;;;2.60;1.75;;;24.90;40.40;;;;;;5032428;28;20441;-68
2023/06/16 01:07:55;;;;;;;1.83;1.50;;;25.00;40.50;;;;;;5030557;28;20140;-68
2023/06/16 01:10:30;;;;;;;2.13;1.50;;;25.00;40.50;;;;;;5034074;28;20029;-68
2023/06/16 01:13:08;;;;;;;3.05;1.65;;;24.90;40.50;;;;;;5035196;28;20025;-68
2023/06/16 01:15:37;;;;;;;2.25;1.60;;;24.90;40.50;;;;;;5035453;28;20469;-68
2023/06/16 01:18:04;;;;;;;2.22;1.70;;;24.90;40.50;;;;;;5034351;28;20500;-68
2023/06/16 01:20:52;;;;;;;2.15;1.70;;;24.90;40.50;;;;;;5035847;28;20025;-68
2023/06/16 01:23:46;;;;;;;2.15;1.73;;;24.90;40.50;;;;;;5035969;28;20025;-67
2023/06/16 01:26:14;;;;;;;2.10;1.67;;;24.90;40.50;;;;;;5032020;28;20022;-68
2023/06/16 01:28:41;;;;;;;2.38;1.70;;;24.90;40.50;;;;;;5029114;28;20324;-68
2023/06/16 01:31:12;;;;;;;2.33;1.77;;;24.90;40.60;;;;;;5035183;28;20468;-68
2023/06/16 01:33:38;;;;;;;2.30;1.70;;;24.90;40.50;;;;;;5034576;28;20029;-68
2023/06/16 01:36:05;;;;;;;2.25;1.65;;;24.90;40.60;;;;;;5038175;28;20018;-68
2023/06/16 01:38:32;;;;;;;2.90;1.70;;;24.90;40.60;;;;;;5035704;28;20022;-68
2023/06/16 01:40:59;;;;;;;2.42;1.70;;;24.90;40.60;;;;;;5030394;28;20044;-68
2023/06/16 01:43:25;;;;;;;2.00;1.50;;;24.90;40.60;;;;;;5033926;28;20096;-68
2023/06/16 01:45:51;;;;;;;2.03;1.55;;;24.90;40.60;;;;;;5034571;28;20116;-68
2023/06/16 01:48:19;;;;;;;1.80;1.50;;;24.90;40.60;;;;;;5036559;28;20361;-68
2023/06/16 01:50:46;;;;;;;2.47;1.67;;;24.80;40.60;;;;;;5032762;28;20541;-68
2023/06/16 01:53:11;;;;;;;1.88;1.50;;;24.80;40.60;;;;;;5032378;28;20563;-68
2023/06/16 01:55:37;;;;;;;2.22;1.70;;;24.80;40.60;;;;;;5031229;28;20065;-68
2023/06/16 01:58:03;;;;;;;2.15;1.60;;;24.80;40.70;;;;;;5035339;28;20392;-68
2023/06/16 02:00:33;;;;;;;2.22;1.63;;;24.80;40.60;;;;;;5036371;28;20021;-68
2023/06/16 02:03:15;;;;;;;2.22;1.75;;;24.80;40.70;;;;;;5035764;28;20017;-68
2023/06/16 02:05:46;;;;;;;2.28;1.67;;;24.80;40.70;;;;;;5031036;28;20018;-68
2023/06/16 02:08:15;;;;;;;2.40;1.58;;;24.80;40.70;;;;;;5036939;28;20025;-68
2023/06/16 02:10:41;;;;;;;1.95;1.70;;;24.80;40.70;;;;;;5033747;28;20490;-68
2023/06/16 02:13:07;;;;;;;2.00;1.60;;;24.80;40.70;;;;;;5036537;28;20037;-68
2023/06/16 02:15:33;;;;;;;2.53;1.60;;;24.80;40.70;;;;;;5037038;28;20431;-68
2023/06/16 02:17:59;;;;;;;2.00;1.55;;;24.80;40.70;;;;;;5039345;28;20091;-68
2023/06/16 02:20:25;;;;;;;2.67;1.90;;;24.80;40.80;;;;;;5039434;28;20018;-68
2023/06/16 02:22:51;;;;;;;1.98;1.65;;;24.80;40.70;;;;;;5003529;28;20478;-68
2023/06/16 02:25:17;;;;;;;2.20;1.70;;;24.80;40.80;;;;;;5036368;28;20028;-68
2023/06/16 02:27:44;;;;;;;1.90;1.52;;;24.80;41.30;;;;;;5039336;28;20035;-68
2023/06/16 02:30:11;;;;;;;2.10;1.50;;;24.80;40.80;;;;;;5043193;28;20453;-68
2023/06/16 02:32:37;;;;;;;2.10;1.60;;;24.80;40.80;;;;;;5038294;28;20025;-68
2023/06/16 02:35:04;;;;;;;2.05;1.60;;;24.80;40.80;;;;;;5038581;28;20036;-68
2023/06/16 02:37:30;;;;;;;2.30;1.80;;;24.80;40.80;;;;;;5039306;28;20034;-68
2023/06/16 02:39:56;;;;;;;1.98;1.50;;;24.70;40.80;;;;;;5034210;28;20385;-68
2023/06/16 02:42:21;;;;;;;2.13;1.50;;;24.70;40.80;;;;;;5037486;28;20033;-68
2023/06/16 02:44:47;;;;;;;1.70;1.45;;;24.70;40.80;;;;;;5040869;28;20496;-68
2023/06/16 02:47:13;;;;;;;2.00;1.50;;;24.70;40.80;;;;;;5038886;28;20033;-68
2023/06/16 02:49:42;;;;;;;1.95;1.50;;;24.70;40.80;;;;;;5037317;28;20469;-68
2023/06/16 02:52:09;;;;;;;2.22;1.65;;;24.70;40.80;;;;;;5033393;28;20024;-68
2023/06/16 02:54:35;;;;;;;2.25;1.63;;;24.70;40.80;;;;;;5039466;28;20033;-68
2023/06/16 02:57:01;;;;;;;1.90;1.50;;;24.70;40.80;;;;;;5036879;28;20032;-68
2023/06/16 02:59:26;;;;;;;1.90;1.52;;;24.70;40.90;;;;;;5039856;28;20033;-68
2023/06/16 03:01:52;;;;;;;2.08;1.50;;;24.70;40.90;;;;;;5037591;28;20048;-68
2023/06/16 03:04:18;;;;;;;1.90;1.48;;;24.70;40.80;;;;;;5037076;28;20033;-68
2023/06/16 03:06:45;;;;;;;2.50;1.40;;;24.70;40.90;;;;;;5036958;28;20029;-68
2023/06/16 03:09:11;;;;;;;2.00;1.50;;;24.70;40.90;;;;;;5039567;28;20485;-67
2023/06/16 03:11:37;;;;;;;1.85;1.45;;;24.70;40.90;;;;;;5034316;28;20032;-68
2023/06/16 03:14:03;;;;;;;2.00;1.60;;;24.70;40.90;;;;;;5039183;28;20219;-68
2023/06/16 03:16:29;;;;;;;2.08;1.58;;;24.70;40.90;;;;;;5038487;28;20117;-68
2023/06/16 03:18:55;;;;;;;2.40;1.67;;;24.70;40.90;;;;;;5037288;28;20052;-68
2023/06/16 03:21:21;;;;;;;1.63;1.30;;;24.70;40.90;;;;;;5036704;28;20382;-68
2023/06/16 03:23:47;;;;;;;2.00;1.50;;;24.60;40.90;;;;;;5035294;28;20029;-68
2023/06/16 03:26:13;;;;;;;1.90;1.50;;;24.60;40.90;;;;;;5032682;28;20064;-68
2023/06/16 03:28:40;;;;;;;2.00;1.50;;;24.60;40.90;;;;;;5037854;28;20025;-68
2023/06/16 03:31:06;;;;;;;2.00;1.50;;;24.60;40.90;;;;;;5040721;28;20032;-68
2023/06/16 03:33:32;;;;;;;2.00;1.50;;;24.60;40.90;;;;;;5037160;28;20392;-68
2023/06/16 03:35:57;;;;;;;1.98;1.60;;;24.60;40.90;;;;;;5035677;28;20080;-68
2023/06/16 03:38:23;;;;;;;2.15;1.58;;;24.60;40.90;;;;;;5036764;28;20064;-68
2023/06/16 03:40:49;;;;;;;1.90;1.42;;;24.60;40.90;;;;;;5030073;28;20128;-68
2023/06/16 03:43:15;;;;;;;2.17;1.60;;;24.60;41.00;;;;;;5034128;28;20060;-68
2023/06/16 03:45:40;;;;;;;1.90;1.50;;;24.60;41.00;;;;;;5035657;28;20033;-68
2023/06/16 03:48:07;;;;;;;2.25;1.52;;;24.60;41.00;;;;;;5036934;28;20033;-68
2023/06/16 03:50:33;;;;;;;2.13;1.50;;;24.60;41.00;;;;;;5031764;28;20026;-68
2023/06/16 03:52:58;;;;;;;2.17;1.60;;;24.60;41.00;;;;;;5032507;28;20025;-68
2023/06/16 03:55:24;;;;;;;2.08;1.60;;;24.60;41.00;;;;;;5018776;28;20402;-68
2023/06/16 03:57:50;;;;;;;1.95;1.50;;;24.60;41.00;;;;;;5034146;28;20476;-68
2023/06/16 04:00:16;;;;;;;2.00;1.60;;;24.60;41.00;;;;;;5033237;28;20444;-68
2023/06/16 04:02:42;;;;;;;1.77;1.40;;;24.60;41.00;;;;;;5016587;28;20032;-68
2023/06/16 04:05:09;;;;;;;1.98;1.40;;;24.60;41.00;;;;;;5036659;28;20021;-68
2023/06/16 04:07:35;;;;;;;2.13;1.60;;;24.60;41.20;;;;;;5035977;28;20098;-68
2023/06/16 04:10:01;;;;;;;2.20;1.60;;;24.60;41.00;;;;;;5037438;28;20095;-68
2023/06/16 04:12:27;;;;;;;1.95;1.50;;;24.50;41.00;;;;;;5036841;28;20029;-68
2023/06/16 04:14:52;;;;;;;1.90;1.52;;;24.50;41.00;;;;;;5037064;28;20034;-68
2023/06/16 04:17:18;;;;;;;2.67;1.90;;;24.60;41.10;;;;;;5038589;28;20055;-68
2023/06/16 04:19:45;;;;;;;2.33;1.83;;;24.50;41.00;;;;;;5035945;28;20029;-68
2023/06/16 04:22:11;;;;;;;1.85;1.60;;;24.60;41.10;;;;;;5035630;28;20036;-68
2023/06/16 04:24:37;;;;;;;2.90;2.00;;;24.50;41.10;;;;;;5034281;28;20024;-68
2023/06/16 04:27:03;;;;;;;2.55;1.85;;;24.50;41.10;;;;;;5035524;28;20025;-68
2023/06/16 04:29:29;;;;;;;2.50;1.92;;;24.50;41.10;;;;;;5040005;28;20021;-68
2023/06/16 04:31:59;;;;;;;2.58;1.92;;;24.50;41.10;;;;;;5020319;28;20369;-68
2023/06/16 04:34:25;;;;;;;2.60;2.03;;;24.50;41.10;;;;;;5034681;28;20059;-68
2023/06/16 04:36:51;;;;;;;2.20;1.80;;;24.50;41.10;;;;;;5034607;28;20105;-68
2023/06/16 04:39:17;;;;;;;2.58;1.98;;;24.50;41.10;;;;;;5034892;28;20148;-68
2023/06/16 04:41:43;;;;;;;2.65;1.83;;;24.50;41.10;;;;;;5030310;28;20024;-68
2023/06/16 04:44:09;;;;;;;2.22;1.90;;;24.50;41.10;;;;;;5016946;28;20036;-68
2023/06/16 04:46:37;;;;;;;2.30;1.70;;;24.50;41.20;;;;;;5018608;28;20024;-68
2023/06/16 04:49:03;;;;;;;2.47;1.88;;;24.50;41.20;;;;;;5032734;28;20025;-68
2023/06/16 04:51:29;;;;;;;2.85;1.95;;;24.50;41.20;;;;;;5033347;28;20048;-68
2023/06/16 04:53:54;;;;;;;2.20;1.70;;;24.50;41.20;;;;;;5035544;28;20021;-68
2023/06/16 04:56:20;;;;;;;2.85;2.08;;;24.50;41.20;;;;;;5019608;28;20591;-68
2023/06/16 04:58:46;;;;;;;2.90;1.95;;;24.50;41.20;;;;;;5036467;28;20100;-67
2023/06/16 05:01:12;;;;;;;2.90;2.05;;;24.50;41.20;;;;;;5034559;28;20104;-66
2023/06/16 05:03:37;;;;;;;2.70;2.00;;;24.50;41.20;;;;;;5033503;28;20511;-67
2023/06/16 05:06:03;;;;;;;2.60;2.00;;;24.50;41.20;;;;;;5033094;28;20450;-68
2023/06/16 05:08:29;;;;;;;3.13;1.77;;;24.50;41.30;;;;;;5033544;28;20039;-68
2023/06/16 05:10:55;;;;;;;2.58;1.80;;;24.50;41.30;;;;;;5033396;28;20033;-68
2023/06/16 05:13:20;;;;;;;2.92;2.05;;;24.50;41.30;;;;;;5027930;28;20073;-68
2023/06/16 05:15:46;;;;;;;4.00;2.00;;;24.50;41.30;;;;;;5034823;28;20406;-68
2023/06/16 05:18:12;;;;;;;2.50;1.83;;;24.50;41.30;;;;;;5033214;28;20377;-68
2023/06/16 05:20:38;;;;;;;2.65;1.95;;;24.50;41.30;;;;;;5029109;28;20025;-68
2023/06/16 05:23:03;;;;;;;2.97;1.92;;;24.50;41.30;;;;;;5035055;28;20017;-68
2023/06/16 05:25:32;;;;;;;2.40;1.80;;;24.50;41.30;;;;;;5031592;28;20251;-68
2023/06/16 05:27:58;;;;;;;2.30;1.92;;;24.50;41.20;;;;;;5033774;28;20029;-68
2023/06/16 05:30:23;;;;;;;2.97;2.13;;;24.50;41.20;;;;;;5035056;28;20460;-68
2023/06/16 05:32:49;;;;;;;2.40;1.90;;;24.50;41.20;;;;;;5030972;28;20022;-68
2023/06/16 05:35:15;;;;;;;2.88;1.95;;;24.50;41.20;;;;;;5032895;28;20695;-68
2023/06/16 05:37:40;;;;;;;2.35;1.85;;;24.50;41.30;;;;;;5034945;28;20057;-68
2023/06/16 05:40:07;;;;;;;2.15;1.77;;;24.50;41.30;;;;;;5035661;28;20027;-68
2023/06/16 05:42:33;;;;;;;2.55;1.95;;;24.50;41.30;;;;;;5033803;28;20029;-68
2023/06/16 05:44:58;;;;;;;3.00;1.92;;;24.40;41.20;;;;;;5038151;28;20037;-68
2023/06/16 05:47:24;;;;;;;3.42;2.17;;;24.40;41.20;;;;;;5039069;28;20212;-68
2023/06/16 05:49:50;;;;;;;2.90;2.20;;;24.40;41.20;;;;;;5037555;28;20033;-68
2023/06/16 05:52:15;;;;;;;2.53;1.75;;;24.50;41.30;;;;;;5041478;28;20036;-68
2023/06/16 05:54:41;;;;;;;2.20;1.70;;;24.40;41.20;;;;;;5019682;28;20034;-68
2023/06/16 05:57:06;;;;;;;2.35;1.80;;;24.40;41.30;;;;;;5038415;28;20040;-68
2023/06/16 05:59:36;;;;;;;2.65;1.90;;;24.40;41.30;;;;;;5041800;28;20018;-68
2023/06/16 06:02:02;;;;;;;2.63;2.03;;;24.40;41.80;;;;;;5037137;28;20049;-68
2023/06/16 06:04:30;;;;;;;2.42;1.90;;;24.40;41.30;;;;;;5038739;28;20153;-68
2023/06/16 06:06:56;;;;;;;2.60;2.00;;;24.40;41.30;;;;;;5038477;28;20044;-68
2023/06/16 06:09:22;;;;;;;2.53;1.90;;;24.40;41.30;;;;;;5037832;28;20416;-68
2023/06/16 06:11:49;;;;;;;2.53;1.90;;;24.40;41.30;;;;;;5038757;28;20029;-68
2023/06/16 06:14:15;;;;;;;2.67;1.90;;;24.40;41.30;;;;;;5037303;28;20473;-68
2023/06/16 06:16:40;;;;;;;2.80;1.85;;;24.40;41.40;;;;;;5035598;28;20025;-68
2023/06/16 06:19:06;;;;;;;2.25;1.70;;;24.40;41.30;;;;;;5021595;28;20108;-68
2023/06/16 06:21:33;;;;;;;2.30;1.80;;;24.40;41.40;;;;;;5035709;28;20021;-68
2023/06/16 06:23:59;;;;;;;2.72;1.90;;;24.40;41.40;;;;;;5040471;28;20021;-68
2023/06/16 06:26:25;;;;;;;2.85;1.80;;;24.40;41.40;;;;;;5039046;28;20021;-68
2023/06/16 06:28:50;;;;;;;2.88;2.13;;;24.40;41.40;;;;;;5018810;28;20071;-68
2023/06/16 06:31:16;;;;;;;2.15;1.50;;;24.30;41.30;;;;;;5038047;28;20026;-68
2023/06/16 06:33:42;;;;;;;2.40;1.90;;;24.30;41.30;;;;;;5042074;28;20017;-68
2023/06/16 06:36:08;;;;;;;2.15;1.70;;;24.30;41.40;;;;;;5038998;28;20128;-68
2023/06/16 06:38:34;;;;;;;3.45;1.90;;;24.30;41.40;;;;;;5038392;28;20108;-68
2023/06/16 06:41:00;;;;;;;2.25;1.70;;;24.30;41.40;;;;;;5037433;28;20453;-67
2023/06/16 06:43:25;;;;;;;2.30;1.80;;;24.30;41.40;;;;;;5017230;28;20103;-68
2023/06/16 06:45:51;;;;;;;2.30;1.85;;;24.30;41.40;;;;;;5018707;28;20519;-69
2023/06/16 06:48:17;;;;;;;2.40;1.80;;;24.30;41.40;;;;;;5038188;28;20034;-68
2023/06/16 06:50:43;;;;;;;2.67;1.90;;;24.30;41.40;;;;;;5032649;28;20032;-68
2023/06/16 06:53:09;;;;;;;2.40;1.70;;;24.30;41.40;;;;;;5021732;28;20128;-68
2023/06/16 06:55:35;;;;;;;2.40;1.80;;;24.30;41.40;;;;;;5037080;28;20116;-68
2023/06/16 06:58:00;;;;;;;2.25;1.85;;;24.30;41.40;;;;;;5035340;28;20428;-68
2023/06/16 07:00:26;;;;;;;3.05;2.05;;;24.30;41.40;;;;;;5035191;28;20472;-68
2023/06/16 07:02:52;;;;;;;2.22;1.70;;;24.40;41.50;;;;;;5037201;28;20021;-68
2023/06/16 07:05:17;;;;;;;2.50;1.60;;;24.30;41.50;;;;;;5034829;28;20064;-68
2023/06/16 07:07:43;;;;;;;2.00;1.60;;;24.30;41.50;;;;;;5039180;28;20434;-68
2023/06/16 07:10:10;;;;;;;2.55;1.80;;;24.30;41.50;;;;;;5036742;28;20091;-68
2023/06/16 07:12:36;;;;;;;2.33;1.88;;;24.30;41.50;;;;;;5034424;28;20030;-68
2023/06/16 07:15:02;;;;;;;2.15;1.75;;;24.30;41.50;;;;;;5020209;28;20094;-68
2023/06/16 07:17:27;;;;;;;2.75;1.70;;;24.30;41.50;;;;;;5035019;28;20144;-68
2023/06/16 07:19:53;;;;;;;2.83;2.00;;;24.30;41.50;;;;;;5034891;28;20175;-68
2023/06/16 07:22:20;;;;;;;2.35;1.80;;;24.30;41.50;;;;;;5039403;28;20389;-68
2023/06/16 07:24:45;;;;;;;2.38;1.77;;;24.30;41.50;;;;;;5038687;28;20045;-68
2023/06/16 07:27:11;;;;;;;2.70;1.90;;;24.30;41.50;;;;;;5037341;28;20138;-68
2023/06/16 07:29:37;;;;;;;2.10;1.77;;;24.30;41.50;;;;;;5032640;28;20040;-68
2023/06/16 07:32:03;;;;;;;2.65;1.80;;;24.30;41.50;;;;;;5034663;28;20037;-68
2023/06/16 07:34:29;;;;;;;2.45;1.65;;;24.30;41.50;;;;;;5037068;28;20017;-68
2023/06/16 07:36:54;;;;;;;2.17;1.70;;;24.30;41.60;;;;;;5039045;28;20033;-68
2023/06/16 07:39:21;;;;;;;2.83;1.83;;;24.30;41.60;;;;;;5035621;28;20029;-68
2023/06/16 07:41:47;;;;;;;2.53;1.90;;;24.30;42.10;;;;;;5037490;28;20108;-68
2023/06/16 07:44:13;;;;;;;2.38;1.80;;;24.30;41.60;;;;;;5032053;28;20402;-68
2023/06/16 07:46:39;;;;;;;2.30;1.77;;;24.30;41.60;;;;;;5035380;28;20132;-68
2023/06/16 07:49:05;;;;;;;1.92;1.60;;;24.30;41.60;;;;;;5032879;28;20021;-68
2023/06/16 07:51:30;;;;;;;2.10;1.60;;;24.30;41.60;;;;;;5037423;28;20108;-68
2023/06/16 07:53:56;;;;;;;2.70;2.05;;;24.30;41.60;;;;;;5032423;28;20037;-68
2023/06/16 07:56:22;;;;;;;2.50;1.90;;;24.30;41.60;;;;;;5035336;28;20022;-68
2023/06/16 07:58:47;;;;;;;1.63;1.40;;;24.30;41.70;;;;;;5033737;28;20036;-67
2023/06/16 08:01:13;;;;;;;2.30;1.80;;;24.30;41.70;;;;;;5023301;28;20043;-68
2023/06/16 08:03:38;;;;;;;2.58;1.75;;;24.30;41.70;;;;;;5033329;28;20366;-68
2023/06/16 08:06:05;;;;;;;2.35;1.80;;;24.30;41.70;;;;;;5037049;28;20405;-68
2023/06/16 08:08:32;;;;;;;2.10;1.55;;;24.30;41.70;;;;;;5036448;28;20022;-68
2023/06/16 08:10:58;;;;;;;2.42;1.85;;;24.30;41.70;;;;;;5039173;28;20030;-68
2023/06/16 08:13:25;;;;;;;2.30;1.65;;;24.30;41.70;;;;;;5020903;28;20124;-68
2023/06/16 08:15:50;;;;;;;2.22;1.65;;;24.30;42.20;;;;;;5036772;28;20094;-68
2023/06/16 08:18:17;;;;;;;2.17;1.70;;;24.30;41.70;;;;;;5036027;28;20033;-68
2023/06/16 08:20:44;;;;;;;2.28;1.73;;;24.30;41.70;;;;;;5030555;28;20430;-68
2023/06/16 08:23:10;;;;;;;2.50;1.70;;;24.30;41.70;;;;;;5032831;28;20026;-68
2023/06/16 08:25:36;;;;;;;2.30;1.70;;;24.30;41.70;;;;;;5039528;28;20039;-68
2023/06/16 08:28:03;;;;;;;2.15;1.65;;;24.30;41.70;;;;;;5033557;28;20034;-68
2023/06/16 08:30:28;;;;;;;1.83;1.50;;;24.30;41.70;;;;;;5035307;28;20025;-68
2023/06/16 08:32:54;;;;;;;2.78;1.88;;;24.30;41.70;;;;;;5034805;28;20079;-68
2023/06/16 08:35:20;;;;;;;2.78;1.88;;;24.30;41.70;;;;;;5034952;28;20556;-68
2023/06/16 08:37:46;;;;;;;2.30;1.70;;;24.30;41.70;;;;;;5019528;28;20103;-68
2023/06/16 08:40:12;;;;;;;2.28;1.90;;;24.30;41.70;;;;;;5035736;28;20080;-68
2023/06/16 08:42:40;;;;;;;2.10;1.65;;;24.30;42.30;;;;;;5034427;28;20122;-68
2023/06/16 08:45:06;;;;;;;3.65;1.83;;;24.30;41.70;;;;;;5035639;28;20068;-68
2023/06/16 08:47:32;;;;;;;2.10;1.60;;;24.30;41.70;;;;;;5034574;28;20061;-68
2023/06/16 08:49:58;;;;;;;2.50;1.83;;;24.30;41.70;;;;;;5035238;28;20052;-68
2023/06/16 08:52:23;;;;;;;2.60;1.90;;;24.30;41.70;;;;;;5035371;28;20029;-68
2023/06/16 08:54:57;;;;;;;1.83;1.50;;;24.30;41.70;;;;;;5031416;28;20033;-68
2023/06/16 08:57:23;;;;;;;2.33;1.80;;;24.30;41.70;;;;;;5033378;28;20025;-68
2023/06/16 08:59:53;;;;;;;2.13;1.70;;;24.30;41.70;;;;;;5037228;28;20086;-68
2023/06/16 09:02:20;;;;;;;3.20;1.85;;;24.30;41.70;;;;;;5033521;28;20053;-68
2023/06/16 09:04:46;;;;;;;2.50;1.52;;;24.30;42.20;;;;;;5032635;28;20040;-68
2023/06/16 09:07:16;;;;;;;2.40;1.80;;;24.20;41.60;;;;;;5032439;28;20450;-68
2023/06/16 09:09:42;;;;;;;2.70;1.80;;;24.20;41.60;;;;;;5034365;28;20029;-68
2023/06/16 09:12:10;;;;;;;2.28;1.70;;;24.30;41.70;;;;;;5037455;28;20083;-68
2023/06/16 09:14:41;;;;;;;2.30;1.70;;;24.30;41.60;;;;;;5033225;28;20036;-68
2023/06/16 09:17:09;;;;;;;2.38;1.75;;;24.30;41.60;;;;;;5031040;28;20033;-68
2023/06/16 09:19:48;;;;;;;2.13;1.75;;;24.20;41.60;;;;;;5035394;28;20025;-68
2023/06/16 09:22:22;;;;;;;2.30;1.73;;;24.30;41.60;;;;;;5034609;28;20045;-68
2023/06/16 09:24:55;;;;;;;1.98;1.48;;;24.30;41.60;;;;;;5037501;28;20055;-68
2023/06/16 09:27:23;;;;;;;2.10;1.55;;;24.20;41.60;;;;;;5026658;28;20446;-68
2023/06/16 09:29:57;;;;;;;2.42;1.90;;;24.20;41.60;;;;;;5015917;28;20074;-68
2023/06/16 09:32:23;;;;;;;2.25;1.75;;;24.20;41.60;;;;;;5032688;28;20076;-68
2023/06/16 09:34:49;;;;;;;2.03;1.67;;;24.30;41.60;;;;;;5035702;28;20029;-68
2023/06/16 09:37:21;;;;;;;2.65;1.90;;;24.20;41.60;;;;;;5031136;28;20412;-68
2023/06/16 09:39:47;;;;;;;2.10;1.65;;;24.20;41.60;;;;;;5035467;28;20091;-68
2023/06/16 09:42:12;;;;;;;2.42;1.67;;;24.20;42.10;;;;;;5034188;28;20038;-68
2023/06/16 09:44:42;;;;;;;2.80;1.90;;;24.20;42.10;;;;;;5016432;28;20026;-68
2023/06/16 09:47:12;;;;;;;2.50;1.80;;;24.30;41.60;;;;;;5030655;28;20108;-68
2023/06/16 09:49:37;;;;;;;2.10;1.60;;;24.30;41.60;;;;;;5033193;28;20071;-68
2023/06/16 09:52:03;;;;;;;2.15;1.60;;;24.30;41.60;;;;;;5035467;28;20745;-68
2023/06/16 09:54:32;;;;;;;1.98;1.50;;;24.30;41.60;;;;;;5018597;28;20029;-68
2023/06/16 09:56:59;;;;;;;2.30;1.58;;;24.30;41.60;;;;;;5032432;28;20493;-68
2023/06/16 09:59:27;;;;;;;2.17;1.60;;;24.30;41.60;;;;;;5028518;28;20017;-68
2023/06/16 10:01:54;;;;;;;2.25;1.70;;;24.20;41.60;;;;;;5033587;28;20022;-68
2023/06/16 10:04:21;;;;;;;2.03;1.60;;;24.30;41.70;;;;;;5033181;28;20040;-68
2023/06/16 10:06:53;;;;;;;2.00;1.50;;;24.20;41.60;;;;;;5033788;28;20064;-68
2023/06/16 10:09:27;;;;;;;2.38;1.50;;;24.20;41.60;;;;;;5034288;28;20398;-68
2023/06/16 10:11:55;;;;;;;1.80;1.50;;;24.20;41.60;;;;;;5018473;28;20112;-68
2023/06/16 10:14:25;;;;;;;2.17;1.73;;;24.20;41.60;;;;;;5018474;28;20076;-68
2023/06/16 10:16:51;;;;;;;2.25;1.77;;;24.20;41.60;;;;;;5036215;28;20475;-68
2023/06/16 10:19:21;;;;;;;2.20;1.50;;;24.30;41.70;;;;;;5030353;28;20525;-68
2023/06/16 10:21:49;;;;;;;2.58;1.70;;;24.30;41.70;;;;;;5035727;28;20062;-68
2023/06/16 10:24:15;;;;;;;2.05;1.60;;;24.20;41.70;;;;;;5033327;28;20392;-68
2023/06/16 10:26:41;;;;;;;2.10;1.60;;;24.20;41.70;;;;;;5033629;28;20017;-68
2023/06/16 10:29:08;;;;;;;2.15;1.60;;;24.20;41.70;;;;;;5035607;28;20033;-68
2023/06/16 10:31:36;;;;;;;2.40;1.70;;;24.20;41.80;;;;;;5041023;28;20017;-68
2023/06/16 10:34:04;;;;;;;2.40;1.60;;;24.30;41.90;;;;;;5023519;28;20064;-68
2023/06/16 10:36:33;;;;;;;2.03;1.63;;;24.30;41.90;;;;;;5039610;28;20511;-68
2023/06/16 10:38:59;;;;;;;;;;;24.20;41.80;;;;;;5037892;28;20022;-68
2023/06/16 10:41:32;;;;;;;2.40;1.60;;;24.30;41.90;;;;;;5040885;28;19947;-68
2023/06/16 10:44:27;;;;;;;2.08;1.50;;;24.30;41.90;;;;;;5018452;28;20041;-68
2023/06/16 10:47:05;;;;;;;2.15;1.70;;;24.30;41.90;;;;;;5038032;28;20026;-68
2023/06/16 10:49:31;;;;;;;1.83;1.45;;;24.20;41.90;;;;;;5035011;28;20034;-68
2023/06/16 10:51:58;;;;;;;1.95;1.63;;;24.20;41.90;;;;;;5038886;28;20516;-68
2023/06/16 10:54:44;;;;;;;2.28;1.77;;;24.20;41.90;;;;;;5038830;28;20032;-68
2023/06/16 10:57:12;;;;;;;1.88;1.42;;;24.20;41.90;;;;;;5038544;28;20053;-68
2023/06/16 10:59:57;;;;;;;2.22;1.67;;;24.20;41.90;;;;;;5036580;28;20017;-68
2023/06/16 11:02:34;;;;;;;2.30;1.67;;;24.20;42.00;;;;;;5036652;28;20017;-68
2023/06/16 11:05:10;;;;;;;2.15;1.70;;;24.20;42.00;;;;;;5036036;28;20026;-68
2023/06/16 11:08:04;;;;;;;2.17;1.70;;;24.30;42.00;;;;;;5034723;28;20523;-68
2023/06/16 11:10:30;;;;;;;2.13;1.60;;;24.20;42.00;;;;;;5037022;28;20029;-68
2023/06/16 11:12:56;;;;;;;2.20;1.70;;;24.30;42.00;;;;;;5036794;28;20389;-68
2023/06/16 11:15:23;;;;;;;2.38;1.70;;;24.30;42.00;;;;;;5020327;28;20489;-68
2023/06/16 11:17:48;;;;;;;2.28;1.80;;;24.20;42.00;;;;;;5037800;28;20025;-68
2023/06/16 11:20:15;;;;;;;3.08;1.73;;;24.30;42.00;;;;;;5035639;28;20033;-68
2023/06/16 11:22:42;;;;;;;2.30;1.60;;;24.30;42.00;;;;;;5036877;28;20115;-68
2023/06/16 11:25:09;;;;;;;2.10;1.73;;;24.20;42.00;;;;;;5037789;28;20481;-68
2023/06/16 11:27:37;;;;;;;2.53;1.83;;;24.30;42.00;;;;;;5018992;28;20021;-68
2023/06/16 11:30:05;;;;;;;2.30;1.80;;;24.30;42.00;;;;;;5038856;28;20049;-68
2023/06/16 11:32:37;;;;;;;2.20;1.80;;;24.30;42.00;;;;;;5018379;28;20048;-68
2023/06/16 11:35:04;;;;;;;2.42;1.77;;;24.30;42.00;;;;;;5035882;28;20049;-68
2023/06/16 11:37:48;;;;;;;2.15;1.48;;;24.30;42.00;;;;;;5033983;28;20112;-68
2023/06/16 11:40:24;;;;;;;2.63;2.00;;;24.30;42.00;;;;;;5034641;28;20014;-68
2023/06/16 11:43:05;;;;;;;2.22;1.70;;;24.30;42.00;;;;;;5036456;28;20068;-68
2023/06/16 11:45:33;;;;;;;2.08;1.50;;;24.30;42.00;;;;;;5037137;28;20109;-68
2023/06/16 11:48:01;;;;;;;2.05;1.60;;;24.30;42.00;;;;;;5035396;28;20057;-68
2023/06/16 11:50:27;;;;;;;2.05;1.63;;;24.30;42.00;;;;;;5034810;28;20052;-67
2023/06/16 11:52:54;;;;;;;2.38;1.60;;;24.30;42.00;;;;;;5033782;28;20478;-68
2023/06/16 11:55:20;;;;;;;1.88;1.60;;;24.30;42.00;;;;;;5032861;28;20033;-68
2023/06/16 11:57:46;;;;;;;2.28;1.80;;;24.30;42.00;;;;;;5034983;28;20061;-68
2023/06/16 12:00:13;;;;;;;2.55;1.80;;;24.30;42.00;;;;;;5037231;28;20053;-68
2023/06/16 12:02:40;;;;;;;3.22;1.70;;;24.30;42.00;;;;;;5036817;28;20092;-68
2023/06/16 12:05:12;;;;;;;2.58;2.00;;;24.30;42.00;;;;;;5032341;28;20029;-68
2023/06/16 12:07:39;;;;;;;2.20;1.60;;;24.30;42.00;;;;;;5036691;28;20029;-68
2023/06/16 12:10:06;;;;;;;2.20;1.70;;;24.30;42.00;;;;;;5037545;28;20033;-68
2023/06/16 12:12:33;;;;;;;2.28;1.73;;;24.30;42.00;;;;;;5034179;28;20030;-68
2023/06/16 12:15:02;;;;;;;2.30;1.60;;;24.30;42.00;;;;;;5032326;28;20164;-68
2023/06/16 12:17:28;;;;;;;3.40;2.03;;;24.30;42.00;;;;;;5034449;28;20100;-68
2023/06/16 12:19:53;;;;;;;2.20;1.73;;;24.30;41.90;;;;;;5030972;28;20456;-68
2023/06/16 12:22:21;;;;;;;2.50;1.88;;;24.30;41.90;;;;;;5033727;28;20068;-68
2023/06/16 12:24:49;;;;;;;2.20;1.63;;;24.30;41.90;;;;;;5012540;28;20111;-68
2023/06/16 12:27:24;;;;;;;2.60;1.88;;;24.30;41.90;;;;;;5033117;28;20175;-68
2023/06/16 12:29:59;;;;;;;2.33;1.77;;;24.30;41.90;;;;;;5035774;28;20067;-68
2023/06/16 12:32:33;;;;;;;2.42;1.70;;;24.30;41.90;;;;;;5034634;28;20067;-68
2023/06/16 12:34:59;;;;;;;2.15;1.60;;;24.30;41.90;;;;;;5036599;28;20610;-68
2023/06/16 12:37:26;;;;;;;2.20;1.63;;;24.30;41.90;;;;;;5034723;28;20131;-68
2023/06/16 12:40:06;;;;;;;2.38;1.55;;;24.30;41.90;;;;;;5039123;28;20109;-68
2023/06/16 12:42:33;;;;;;;2.05;1.65;;;24.30;41.90;;;;;;5036195;28;20133;-68
2023/06/16 12:45:01;;;;;;;2.30;1.80;;;24.30;41.90;;;;;;5032906;28;20032;-68
2023/06/16 12:47:28;;;;;;;2.42;1.65;;;24.30;41.90;;;;;;5036167;28;20590;-68
2023/06/16 12:49:55;;;;;;;2.42;1.80;;;24.30;41.90;;;;;;5036689;28;20033;-68